Terminal Aerodrome Forecast
Issued by NWS Chicago, IL

Home | Current Version | Previous Version | Graphics & Text | Print | Product List | Glossary On
Versions: 1 2 3 4 5 6 7 8 9 10 11 12 13 14 15 16 17 18 19 20 21 22
000
FTUS43 KLOT 250534
TAFRFD
TAF
KRFD 250534Z 2506/2606 18006KT P6SM SCT250
     FM251500 22013G19KT P6SM SCT060 BKN200
     FM260100 22007KT P6SM BKN090 BKN200=

USA.gov is the U.S. government's official web portal to all federal, state and local government web resources and services.